Time;durP1;ratioP1;P1;durP2;ratioP2;P2;SDS_P1;SDS_P2;PMS_P1;PMS_P2;Temp;Humidity;BMP_temperature;BMP_pressure;BME280_temperature;BME280_humidity;BME280_pressure;Samples;Min_cycle;Max_cycle;Signal;HPM_P1;HPM_P2
2023/03/02 00:02:16;;;;;;;41.63;19.67;;;;;;;;;;5084964;28;20044;-64
2023/03/02 00:04:44;;;;;;;47.60;22.42;;;;;;;;;;5088575;28;20097;-64
2023/03/02 00:07:11;;;;;;;47.25;21.95;;;;;;;;;;5073038;28;20044;-64
2023/03/02 00:09:37;;;;;;;43.78;20.48;;;;;;;;;;5072887;28;20036;-64
2023/03/02 00:12:03;;;;;;;43.50;20.50;;;;;;;;;;5092918;28;20055;-64
2023/03/02 00:14:29;;;;;;;49.63;22.50;;;;;;;;;;5081537;28;20029;-64
2023/03/02 00:16:55;;;;;;;45.05;21.73;;;;;;;;;;5081275;28;20040;-64
2023/03/02 00:19:21;;;;;;;48.90;22.70;;;;;;;;;;5076708;28;20036;-64
2023/03/02 00:21:47;;;;;;;48.47;21.40;;;;;;;;;;5078520;28;20044;-64
2023/03/02 00:24:14;;;;;;;52.08;23.33;;;;;;;;;;5085280;28;20047;-64
2023/03/02 00:26:40;;;;;;;48.50;22.42;;;;;;;;;;5082760;28;20123;-64
2023/03/02 00:29:07;;;;;;;46.97;22.05;;;;;;;;;;5085992;28;20182;-64
2023/03/02 00:31:33;;;;;;;53.22;23.33;;;;;;;;;;5087203;28;20122;-64
2023/03/02 00:33:59;;;;;;;54.90;25.35;;;;;;;;;;5082666;28;20039;-64
2023/03/02 00:36:25;;;;;;;51.10;24.20;;;;;;;;;;5099517;28;20120;-64
2023/03/02 00:38:51;;;;;;;48.80;23.60;;;;;;;;;;5083785;28;20466;-64
2023/03/02 00:41:20;;;;;;;50.97;23.48;;;;;;;;;;5089566;28;20028;-64
2023/03/02 00:43:47;;;;;;;55.97;24.42;;;;;;;;;;5080471;28;20036;-64
2023/03/02 00:46:14;;;;;;;52.08;24.52;;;;;;;;;;5078915;28;20040;-64
2023/03/02 00:48:40;;;;;;;49.67;22.52;;;;;;;;;;5072014;28;20040;-64
2023/03/02 00:51:07;;;;;;;61.65;25.00;;;;;;;;;;5078435;28;20400;-64
2023/03/02 00:53:33;;;;;;;59.78;27.15;;;;;;;;;;5087048;28;20040;-64
2023/03/02 00:56:00;;;;;;;57.35;26.52;;;;;;;;;;5064733;28;20386;-64
2023/03/02 00:58:27;;;;;;;55.25;25.25;;;;;;;;;;5078318;28;20059;-64
2023/03/02 01:00:53;;;;;;;58.30;24.95;;;;;;;;;;5090323;28;20052;-64
2023/03/02 01:03:19;;;;;;;58.90;26.10;;;;;;;;;;5104361;28;20546;-64
2023/03/02 01:05:45;;;;;;;56.13;23.73;;;;;;;;;;5097122;28;20067;-64
2023/03/02 01:08:11;;;;;;;53.45;24.25;;;;;;;;;;5081362;28;20061;-64
2023/03/02 01:10:38;;;;;;;57.38;24.85;;;;;;;;;;5099147;28;20039;-64
2023/03/02 01:13:04;;;;;;;53.90;23.45;;;;;;;;;;5078966;28;20025;-64
2023/03/02 01:15:31;;;;;;;50.08;22.05;;;;;;;;;;5079997;28;20041;-64
2023/03/02 01:17:58;;;;;;;53.15;21.90;;;;;;;;;;5077833;28;20044;-64
2023/03/02 01:20:24;;;;;;;59.05;24.40;;;;;;;;;;5090725;28;20032;-64
2023/03/02 01:22:50;;;;;;;54.00;22.63;;;;;;;;;;5084625;28;20047;-64
2023/03/02 01:25:16;;;;;;;56.55;24.15;;;;;;;;;;5096299;28;20069;-64
2023/03/02 01:27:42;;;;;;;55.03;24.50;;;;;;;;;;5088333;28;20040;-64
2023/03/02 01:30:09;;;;;;;48.30;21.83;;;;;;;;;;5080978;28;20205;-64
2023/03/02 01:32:35;;;;;;;55.28;23.60;;;;;;;;;;5077576;28;20417;-64
2023/03/02 01:35:01;;;;;;;49.15;21.00;;;;;;;;;;5090375;28;20062;-64
2023/03/02 01:37:27;;;;;;;52.17;23.27;;;;;;;;;;5090493;28;20102;-63
2023/03/02 01:39:53;;;;;;;51.35;22.80;;;;;;;;;;5080864;28;20515;-64
2023/03/02 01:42:19;;;;;;;52.72;23.55;;;;;;;;;;5076681;28;20527;-64
2023/03/02 01:44:45;;;;;;;48.00;22.95;;;;;;;;;;5089936;28;20032;-64
2023/03/02 01:47:13;;;;;;;54.58;24.50;;;;;;;;;;5079554;28;20062;-64
2023/03/02 01:49:42;;;;;;;52.55;24.52;;;;;;;;;;5095389;28;20106;-64
2023/03/02 01:52:11;;;;;;;62.88;26.05;;;;;;;;;;5080837;28;20542;-64
2023/03/02 01:54:37;;;;;;;60.35;25.58;;;;;;;;;;5091270;28;20047;-64
2023/03/02 01:57:03;;;;;;;56.75;23.42;;;;;;;;;;5081423;28;20044;-64
2023/03/02 01:59:31;;;;;;;53.45;22.10;;;;;;;;;;5088089;28;20040;-64
2023/03/02 02:01:58;;;;;;;50.10;20.77;;;;;;;;;;5094388;28;20048;-64
2023/03/02 02:04:26;;;;;;;51.10;22.23;;;;;;;;;;5093265;28;20062;-64
2023/03/02 02:06:57;;;;;;;48.67;23.02;;;;;;;;;;5094655;28;20044;-64
2023/03/02 02:09:23;;;;;;;;;;;;;;;;;;5094058;28;20089;-64
2023/03/02 02:11:49;;;;;;;46.35;21.38;;;;;;;;;;5076618;28;19916;-64
2023/03/02 02:14:15;;;;;;;53.78;22.85;;;;;;;;;;5094950;28;20439;-64
2023/03/02 02:16:41;;;;;;;51.95;23.60;;;;;;;;;;5089528;28;20040;-64
2023/03/02 02:19:28;;;;;;;55.13;23.75;;;;;;;;;;5080515;28;20036;-64
2023/03/02 02:21:54;;;;;;;46.85;21.73;;;;;;;;;;5062510;28;20047;-64
2023/03/02 02:24:25;;;;;;;50.95;24.10;;;;;;;;;;5087259;28;20410;-64
2023/03/02 02:26:52;;;;;;;47.03;21.17;;;;;;;;;;5091868;28;20047;-64
2023/03/02 02:29:21;;;;;;;48.10;20.90;;;;;;;;;;5085757;28;20474;-64
2023/03/02 02:32:01;;;;;;;49.33;20.27;;;;;;;;;;5091047;28;20048;-64
2023/03/02 02:34:32;;;;;;;47.70;22.55;;;;;;;;;;5069150;28;20445;-64
2023/03/02 02:37:02;;;;;;;46.75;21.63;;;;;;;;;;5056499;28;20482;-64
2023/03/02 02:39:31;;;;;;;44.05;20.83;;;;;;;;;;5076709;28;20164;-64
2023/03/02 02:42:02;;;;;;;49.17;22.98;;;;;;;;;;5085272;28;20128;-64
2023/03/02 02:44:28;;;;;;;56.33;23.95;;;;;;;;;;5075084;28;20040;-64
2023/03/02 02:46:54;;;;;;;51.03;22.33;;;;;;;;;;5077937;28;20047;-64
2023/03/02 02:49:32;;;;;;;49.90;23.15;;;;;;;;;;5087824;28;20391;-64
2023/03/02 02:51:58;;;;;;;47.33;20.95;;;;;;;;;;5077442;28;20138;-64
2023/03/02 02:54:24;;;;;;;47.55;20.17;;;;;;;;;;5071776;28;20074;-64
2023/03/02 02:56:52;;;;;;;47.83;20.40;;;;;;;;;;5082125;28;20070;-65
2023/03/02 02:59:20;;;;;;;51.47;22.20;;;;;;;;;;5085037;28;20552;-64
2023/03/02 03:01:47;;;;;;;44.70;20.10;;;;;;;;;;5095141;28;20039;-64
2023/03/02 03:04:17;;;;;;;45.10;20.45;;;;;;;;;;5086006;28;20562;-64
2023/03/02 03:07:00;;;;;;;40.95;19.80;;;;;;;;;;5091523;28;20600;-64
2023/03/02 03:09:26;;;;;;;43.83;19.45;;;;;;;;;;5093845;28;20039;-64
2023/03/02 03:11:54;;;;;;;44.38;19.48;;;;;;;;;;5093757;28;20482;-64
2023/03/02 03:14:21;;;;;;;39.53;17.85;;;;;;;;;;5093868;28;20477;-64
2023/03/02 03:16:48;;;;;;;51.65;20.25;;;;;;;;;;5091258;28;20063;-64
2023/03/02 03:19:22;;;;;;;48.50;20.48;;;;;;;;;;5088208;28;20039;-64
2023/03/02 03:21:50;;;;;;;44.63;20.00;;;;;;;;;;5074697;28;20086;-64
2023/03/02 03:24:16;;;;;;;46.00;19.63;;;;;;;;;;5092743;28;20039;-64
2023/03/02 03:26:43;;;;;;;48.92;21.75;;;;;;;;;;5084175;28;20071;-64
2023/03/02 03:29:09;;;;;;;46.13;19.98;;;;;;;;;;5074428;28;20036;-64
2023/03/02 03:31:35;;;;;;;44.90;20.45;;;;;;;;;;5106924;28;20038;-64
2023/03/02 03:34:01;;;;;;;47.75;20.67;;;;;;;;;;5077237;28;20043;-64
2023/03/02 03:36:28;;;;;;;45.97;19.17;;;;;;;;;;5085312;28;20113;-64
2023/03/02 03:38:55;;;;;;;48.47;21.40;;;;;;;;;;5096944;28;20047;-64
2023/03/02 03:41:21;;;;;;;54.70;23.20;;;;;;;;;;5105040;28;20036;-64
2023/03/02 03:43:47;;;;;;;56.55;20.70;;;;;;;;;;5102727;28;20383;-64
2023/03/02 03:46:13;;;;;;;51.30;23.08;;;;;;;;;;5089996;28;20050;-64
2023/03/02 03:48:39;;;;;;;52.45;20.63;;;;;;;;;;5089455;28;20041;-64
2023/03/02 03:51:05;;;;;;;65.22;21.83;;;;;;;;;;5092315;28;20036;-64
2023/03/02 03:53:32;;;;;;;63.65;22.13;;;;;;;;;;5076922;28;20092;-64
2023/03/02 03:55:58;;;;;;;58.92;20.13;;;;;;;;;;5086863;28;20047;-64
2023/03/02 03:58:24;;;;;;;52.42;20.50;;;;;;;;;;5092876;28;20043;-64
2023/03/02 04:00:51;;;;;;;52.53;20.35;;;;;;;;;;5093051;28;20402;-64
2023/03/02 04:03:18;;;;;;;61.92;22.05;;;;;;;;;;5090746;28;20047;-64
2023/03/02 04:05:44;;;;;;;57.05;21.58;;;;;;;;;;5079760;28;20040;-64
2023/03/02 04:08:10;;;;;;;54.72;21.98;;;;;;;;;;5090697;28;20516;-64
2023/03/02 04:10:36;;;;;;;46.88;20.52;;;;;;;;;;5084630;28;20032;-64
2023/03/02 04:13:02;;;;;;;60.83;23.58;;;;;;;;;;5092551;28;20036;-64
2023/03/02 04:15:28;;;;;;;56.65;22.50;;;;;;;;;;5090282;28;20035;-64
2023/03/02 04:17:54;;;;;;;57.67;21.40;;;;;;;;;;5088506;28;20498;-64
2023/03/02 04:20:21;;;;;;;72.10;22.67;;;;;;;;;;5091383;28;20040;-64
2023/03/02 04:22:48;;;;;;;71.90;22.08;;;;;;;;;;5094315;28;20512;-64
2023/03/02 04:25:18;;;;;;;65.15;21.65;;;;;;;;;;5069345;28;20044;-65
2023/03/02 04:27:44;;;;;;;80.40;22.90;;;;;;;;;;5074541;22;20044;-65
2023/03/02 04:30:10;;;;;;;51.15;20.73;;;;;;;;;;5067233;28;20029;-65
2023/03/02 04:32:36;;;;;;;55.67;21.83;;;;;;;;;;5044452;28;20033;-65
2023/03/02 04:35:03;;;;;;;51.03;18.75;;;;;;;;;;5040691;28;20091;-65
2023/03/02 04:37:29;;;;;;;54.85;19.58;;;;;;;;;;5053171;28;20036;-65
2023/03/02 04:39:55;;;;;;;60.80;21.85;;;;;;;;;;5070485;28;20804;-65
2023/03/02 04:42:22;;;;;;;66.88;23.52;;;;;;;;;;5065513;28;20040;-65
2023/03/02 04:44:48;;;;;;;69.00;22.08;;;;;;;;;;5057591;28;20037;-65
2023/03/02 04:47:14;;;;;;;61.53;22.83;;;;;;;;;;5052111;28;20462;-65
2023/03/02 04:49:40;;;;;;;65.68;21.83;;;;;;;;;;5061750;28;20379;-65
2023/03/02 04:52:06;;;;;;;105.60;24.40;;;;;;;;;;5042005;28;20403;-65
2023/03/02 04:54:33;;;;;;;127.20;28.10;;;;;;;;;;5055182;28;20539;-65
2023/03/02 04:56:59;;;;;;;142.65;26.33;;;;;;;;;;5058000;28;20490;-65
2023/03/02 04:59:26;;;;;;;112.20;24.45;;;;;;;;;;5051899;28;20055;-65
2023/03/02 05:01:54;;;;;;;114.65;25.80;;;;;;;;;;5055334;28;20186;-65
2023/03/02 05:04:20;;;;;;;134.65;27.58;;;;;;;;;;5045863;28;20048;-65
2023/03/02 05:06:46;;;;;;;118.43;27.55;;;;;;;;;;5059349;28;20052;-65
2023/03/02 05:09:12;;;;;;;120.50;25.95;;;;;;;;;;5051905;28;20033;-64
2023/03/02 05:11:38;;;;;;;109.85;27.52;;;;;;;;;;5064839;28;20036;-64
2023/03/02 05:14:06;;;;;;;117.22;27.80;;;;;;;;;;5062246;28;20106;-64
2023/03/02 05:16:32;;;;;;;108.80;28.45;;;;;;;;;;5067746;28;20422;-65
2023/03/02 05:19:00;;;;;;;135.77;28.33;;;;;;;;;;5061649;28;20532;-64
2023/03/02 05:21:26;;;;;;;100.78;25.77;;;;;;;;;;5064312;28;20049;-65
2023/03/02 05:23:52;;;;;;;88.28;23.88;;;;;;;;;;5067831;28;20044;-64
2023/03/02 05:26:18;;;;;;;116.22;27.45;;;;;;;;;;5069075;28;20478;-65
2023/03/02 05:28:45;;;;;;;113.65;26.88;;;;;;;;;;5061825;28;20083;-65
2023/03/02 05:31:33;;;;;;;95.32;25.77;;;;;;;;;;5062881;28;20063;-64
2023/03/02 05:33:59;;;;;;;128.73;28.35;;;;;;;;;;5043922;28;20052;-64
2023/03/02 05:36:25;;;;;;;110.43;26.90;;;;;;;;;;5065512;28;20044;-64
2023/03/02 05:38:51;;;;;;;104.50;26.10;;;;;;;;;;5073439;28;20049;-65
2023/03/02 05:41:17;;;;;;;102.90;26.33;;;;;;;;;;5060156;28;20071;-64
2023/03/02 05:43:43;;;;;;;104.60;26.90;;;;;;;;;;5070298;28;20036;-65
2023/03/02 05:46:10;;;;;;;125.88;29.48;;;;;;;;;;5066857;28;20037;-64
2023/03/02 05:48:36;;;;;;;139.13;28.10;;;;;;;;;;5045770;28;20095;-65
2023/03/02 05:51:02;;;;;;;112.43;28.20;;;;;;;;;;5061653;28;20036;-65
2023/03/02 05:53:27;;;;;;;107.00;25.40;;;;;;;;;;5054861;28;20044;-64
2023/03/02 05:55:54;;;;;;;77.72;24.45;;;;;;;;;;5058762;28;20863;-64
2023/03/02 05:58:20;;;;;;;91.88;26.27;;;;;;;;;;5063047;28;20036;-64
2023/03/02 06:00:47;;;;;;;92.25;26.73;;;;;;;;;;5067126;28;20060;-65
2023/03/02 06:03:13;;;;;;;98.25;26.55;;;;;;;;;;5064279;28;20473;-65
2023/03/02 06:05:39;;;;;;;138.50;29.58;;;;;;;;;;5057987;28;20486;-65
2023/03/02 06:08:05;;;;;;;133.70;28.02;;;;;;;;;;5069928;28;20043;-64
2023/03/02 06:10:32;;;;;;;120.47;23.65;;;;;;;;;;5068574;28;20047;-64
2023/03/02 06:12:58;;;;;;;150.27;27.58;;;;;;;;;;5056299;28;20510;-64
2023/03/02 06:15:24;;;;;;;131.48;27.58;;;;;;;;;;5068499;28;20036;-64
2023/03/02 06:17:50;;;;;;;117.40;27.70;;;;;;;;;;5064677;28;20090;-64
2023/03/02 06:20:17;;;;;;;108.95;26.40;;;;;;;;;;5069078;28;20040;-64
2023/03/02 06:22:44;;;;;;;122.95;26.80;;;;;;;;;;5073263;28;20036;-64
2023/03/02 06:25:20;;;;;;;107.75;25.67;;;;;;;;;;5069440;28;20037;-64
2023/03/02 06:27:49;;;;;;;103.25;24.80;;;;;;;;;;5062469;28;20047;-64
2023/03/02 06:30:16;;;;;;;113.85;23.33;;;;;;;;;;5065847;28;20414;-64
2023/03/02 06:32:42;;;;;;;103.65;23.25;;;;;;;;;;5065060;28;20375;-64
2023/03/02 06:35:09;;;;;;;105.28;22.27;;;;;;;;;;5048102;28;20039;-64
2023/03/02 06:37:35;;;;;;;86.28;21.83;;;;;;;;;;5071279;28;20375;-65
2023/03/02 06:40:01;;;;;;;75.35;21.58;;;;;;;;;;5061065;28;20490;-64
2023/03/02 06:42:27;;;;;;;83.88;23.10;;;;;;;;;;5070887;28;20546;-65
2023/03/02 06:44:53;;;;;;;88.50;23.70;;;;;;;;;;5062065;28;20044;-64
2023/03/02 06:47:21;;;;;;;119.15;27.33;;;;;;;;;;5046573;28;20048;-64
2023/03/02 06:49:47;;;;;;;90.07;22.75;;;;;;;;;;5057454;28;20043;-64
2023/03/02 06:52:13;;;;;;;88.30;22.65;;;;;;;;;;5049123;28;20088;-64
2023/03/02 06:54:40;;;;;;;72.00;21.65;;;;;;;;;;5042586;28;20114;-65
2023/03/02 06:57:06;;;;;;;80.15;22.90;;;;;;;;;;5070003;28;20068;-65
2023/03/02 06:59:33;;;;;;;95.47;23.70;;;;;;;;;;5057625;28;20043;-64
2023/03/02 07:01:59;;;;;;;91.32;22.52;;;;;;;;;;5056714;28;20524;-64
2023/03/02 07:04:28;;;;;;;79.10;21.77;;;;;;;;;;5065437;28;20068;-64
2023/03/02 07:06:55;;;;;;;77.70;20.48;;;;;;;;;;5059866;28;20564;-64
2023/03/02 07:09:21;;;;;;;87.80;22.40;;;;;;;;;;5069466;28;20041;-61
2023/03/02 07:11:47;;;;;;;88.72;21.90;;;;;;;;;;5065013;28;20033;-61
2023/03/02 07:14:13;;;;;;;82.00;20.67;;;;;;;;;;5060712;28;20040;-62
2023/03/02 07:16:39;;;;;;;82.25;20.42;;;;;;;;;;5058898;28;20037;-61
2023/03/02 07:19:05;;;;;;;67.88;20.52;;;;;;;;;;5063891;28;20062;-62
2023/03/02 07:21:31;;;;;;;87.65;22.77;;;;;;;;;;5062280;28;20043;-61
2023/03/02 07:23:57;;;;;;;85.00;22.42;;;;;;;;;;5047091;28;20044;-62
2023/03/02 07:26:23;;;;;;;59.58;21.05;;;;;;;;;;5062712;28;20552;-61
2023/03/02 07:28:49;;;;;;;58.78;19.88;;;;;;;;;;5062224;28;20037;-62
2023/03/02 07:31:15;;;;;;;58.80;21.90;;;;;;;;;;5044277;28;20393;-61
2023/03/02 07:33:41;;;;;;;69.68;21.13;;;;;;;;;;5066791;28;20064;-62
2023/03/02 07:36:07;;;;;;;63.33;22.17;;;;;;;;;;5060974;28;20037;-62
2023/03/02 07:38:34;;;;;;;83.68;23.05;;;;;;;;;;5060099;28;20040;-62
2023/03/02 07:41:00;;;;;;;66.95;21.27;;;;;;;;;;5060703;28;20090;-61
2023/03/02 07:43:27;;;;;;;64.22;22.02;;;;;;;;;;5062459;28;20051;-62
2023/03/02 07:45:53;;;;;;;63.35;20.83;;;;;;;;;;5064928;28;20044;-62
2023/03/02 07:48:22;;;;;;;78.82;22.55;;;;;;;;;;5061396;28;20102;-61
2023/03/02 07:50:48;;;;;;;77.32;20.42;;;;;;;;;;5057668;28;20047;-61
2023/03/02 07:53:14;;;;;;;70.88;22.30;;;;;;;;;;5062422;28;20124;-62
2023/03/02 07:55:40;;;;;;;61.78;21.23;;;;;;;;;;5060230;28;20115;-62
2023/03/02 07:58:06;;;;;;;61.33;20.27;;;;;;;;;;5049739;28;20094;-62
2023/03/02 08:00:33;;;;;;;66.13;22.48;;;;;;;;;;5064184;28;20037;-62
2023/03/02 08:02:59;;;;;;;61.03;22.23;;;;;;;;;;5048570;28;20047;-62
2023/03/02 08:05:25;;;;;;;59.33;21.52;;;;;;;;;;5064871;28;20486;-61
2023/03/02 08:07:51;;;;;;;56.40;21.42;;;;;;;;;;5072275;28;20098;-62
2023/03/02 08:10:17;;;;;;;48.53;19.05;;;;;;;;;;5071498;28;20040;-62
2023/03/02 08:12:43;;;;;;;47.80;19.50;;;;;;;;;;5068683;28;20529;-62
2023/03/02 08:15:10;;;;;;;61.42;22.35;;;;;;;;;;5042885;28;20044;-62
2023/03/02 08:17:36;;;;;;;67.85;22.45;;;;;;;;;;5063859;28;20174;-62
2023/03/02 08:20:03;;;;;;;62.08;20.38;;;;;;;;;;5059090;28;20068;-62
2023/03/02 08:22:29;;;;;;;68.18;19.45;;;;;;;;;;5062003;28;20042;-62
2023/03/02 08:24:55;;;;;;;81.13;20.05;;;;;;;;;;5063342;28;20052;-62
2023/03/02 08:27:21;;;;;;;70.10;21.38;;;;;;;;;;5045117;28;20043;-62
2023/03/02 08:29:47;;;;;;;86.43;22.42;;;;;;;;;;5058767;28;20094;-62
2023/03/02 08:32:13;;;;;;;61.83;19.15;;;;;;;;;;5062974;28;20123;-62
2023/03/02 08:34:39;;;;;;;68.97;20.75;;;;;;;;;;5057832;28;20037;-62
2023/03/02 08:37:05;;;;;;;64.18;21.60;;;;;;;;;;5059804;28;20045;-62
2023/03/02 08:39:31;;;;;;;54.75;19.98;;;;;;;;;;5060649;28;20049;-62
2023/03/02 08:41:57;;;;;;;56.92;19.63;;;;;;;;;;5063601;28;20055;-61
2023/03/02 08:44:24;;;;;;;63.50;17.80;;;;;;;;;;5062405;28;20041;-61
2023/03/02 08:46:50;;;;;;;54.63;18.63;;;;;;;;;;5061116;28;20044;-62
2023/03/02 08:49:17;;;;;;;56.25;17.42;;;;;;;;;;5063037;28;20048;-62
2023/03/02 08:51:43;;;;;;;43.60;17.17;;;;;;;;;;5041398;28;20487;-62
2023/03/02 08:54:09;;;;;;;43.33;18.63;;;;;;;;;;5062552;28;20039;-62
2023/03/02 08:56:36;;;;;;;42.33;15.65;;;;;;;;;;5041909;28;20114;-62
2023/03/02 08:59:06;;;;;;;51.28;20.52;;;;;;;;;;5063277;28;20387;-62
2023/03/02 09:01:33;;;;;;;60.10;20.55;;;;;;;;;;5056651;28;20043;-62
2023/03/02 09:04:00;;;;;;;43.70;18.88;;;;;;;;;;5063887;28;20123;-62
2023/03/02 09:06:26;;;;;;;69.65;23.33;;;;;;;;;;5061386;28;20498;-63
2023/03/02 09:08:53;;;;;;;62.20;18.98;;;;;;;;;;5060987;28;20523;-62
2023/03/02 09:11:19;;;;;;;53.67;19.48;;;;;;;;;;5064595;28;20036;-62
2023/03/02 09:13:45;;;;;;;55.05;19.88;;;;;;;;;;5061069;28;20044;-62
2023/03/02 09:16:11;;;;;;;63.67;18.60;;;;;;;;;;5064498;28;20526;-62
2023/03/02 09:18:37;;;;;;;46.63;18.02;;;;;;;;;;5040217;28;20122;-62
2023/03/02 09:21:03;;;;;;;55.28;20.42;;;;;;;;;;5062584;28;20565;-63
2023/03/02 09:23:30;;;;;;;76.60;19.75;;;;;;;;;;5044748;28;20502;-62
2023/03/02 09:25:56;;;;;;;60.85;21.48;;;;;;;;;;5064731;28;20127;-62
2023/03/02 09:28:22;;;;;;;52.53;20.48;;;;;;;;;;5052504;28;20119;-63
2023/03/02 09:30:52;;;;;;;47.97;18.63;;;;;;;;;;5047927;28;20041;-63
2023/03/02 09:33:19;;;;;;;52.22;17.05;;;;;;;;;;5063391;28;20116;-61
2023/03/02 09:35:46;;;;;;;44.08;18.83;;;;;;;;;;5045542;28;20059;-62
2023/03/02 09:38:15;;;;;;;58.92;18.98;;;;;;;;;;5055247;28;20082;-62
2023/03/02 09:40:52;;;;;;;56.47;19.92;;;;;;;;;;5067016;28;20043;-62
2023/03/02 09:43:27;;;;;;;56.65;20.00;;;;;;;;;;5061524;28;20049;-62
2023/03/02 09:46:15;;;;;;;62.85;21.63;;;;;;;;;;5057789;28;20439;-62
2023/03/02 09:49:04;;;;;;;59.13;20.77;;;;;;;;;;5062512;28;20056;-62
2023/03/02 09:51:32;;;;;;;55.03;21.55;;;;;;;;;;5060055;28;20056;-62
2023/03/02 09:54:07;;;;;;;51.13;20.75;;;;;;;;;;5058927;28;20041;-62
2023/03/02 09:56:35;;;;;;;50.03;20.83;;;;;;;;;;5043914;28;20478;-61
2023/03/02 09:59:08;;;;;;;59.95;20.25;;;;;;;;;;5061292;28;20135;-62
2023/03/02 10:01:38;;;;;;;54.47;21.00;;;;;;;;;;5061791;28;20094;-61
2023/03/02 10:04:09;;;;;;;57.72;21.67;;;;;;;;;;5060473;28;20098;-61
2023/03/02 10:06:35;;;;;;;;;;;;;;;;;;5068037;28;20036;-61
2023/03/02 10:09:01;;;;;;;49.33;20.92;;;;;;;;;;5056413;28;19924;-61
2023/03/02 10:11:30;;;;;;;48.47;21.30;;;;;;;;;;5055832;28;20047;-62
2023/03/02 10:14:17;;;;;;;50.83;21.63;;;;;;;;;;5069316;28;20045;-62
2023/03/02 10:16:48;;;;;;;46.00;21.70;;;;;;;;;;5053509;28;20032;-62
2023/03/02 10:19:20;;;;;;;42.30;20.63;;;;;;;;;;5059409;28;20036;-62
2023/03/02 10:21:53;;;;;;;48.80;21.65;;;;;;;;;;5062555;28;20045;-63
2023/03/02 10:24:19;;;;;;;50.30;19.42;;;;;;;;;;5054948;28;20055;-62
2023/03/02 10:29:29;;;;;;;46.80;21.80;;;;;;;;;;5046635;28;20094;-61
2023/03/02 10:32:11;;;;;;;48.90;21.48;;;;;;;;;;5053316;28;20406;-61
2023/03/02 10:34:38;;;;;;;50.17;21.58;;;;;;;;;;5052544;28;20137;-62
2023/03/02 10:37:11;;;;;;;46.03;20.60;;;;;;;;;;5052548;28;20045;-62
2023/03/02 10:39:37;;;;;;;44.97;22.13;;;;;;;;;;5050360;28;20402;-62
2023/03/02 10:42:04;;;;;;;45.38;21.45;;;;;;;;;;5043515;28;20032;-62
2023/03/02 10:44:32;;;;;;;44.67;19.98;;;;;;;;;;5052112;28;20075;-61
2023/03/02 10:46:58;;;;;;;45.75;20.80;;;;;;;;;;5052531;28;20037;-62
2023/03/02 10:49:29;;;;;;;49.92;23.17;;;;;;;;;;5052364;28;20086;-62
2023/03/02 10:51:56;;;;;;;52.00;22.90;;;;;;;;;;5050137;28;20513;-61
2023/03/02 10:54:24;;;;;;;52.55;23.25;;;;;;;;;;5049430;28;20082;-62
2023/03/02 10:56:52;;;;;;;46.85;21.30;;;;;;;;;;5053642;28;20491;-62
2023/03/02 10:59:37;;;;;;;46.22;21.90;;;;;;;;;;5051742;28;20402;-62
2023/03/02 11:02:12;;;;;;;46.72;21.60;;;;;;;;;;5050530;28;20036;-62
2023/03/02 11:04:38;;;;;;;43.30;20.48;;;;;;;;;;5045825;28;20037;-62
2023/03/02 11:07:30;;;;;;;48.75;21.02;;;;;;;;;;5050485;28;20098;-62
2023/03/02 11:09:56;;;;;;;50.03;21.75;;;;;;;;;;5045578;28;20048;-62
2023/03/02 11:12:23;;;;;;;47.92;21.27;;;;;;;;;;5051170;28;20045;-62
2023/03/02 11:14:49;;;;;;;54.47;21.98;;;;;;;;;;5049742;28;20029;-62
2023/03/02 11:17:44;;;;;;;49.90;20.67;;;;;;;;;;5050453;28;20402;-62
2023/03/02 11:20:19;;;;;;;49.58;21.23;;;;;;;;;;5024179;28;20126;-62
2023/03/02 11:22:45;;;;;;;46.58;21.50;;;;;;;;;;5047888;28;20045;-62
2023/03/02 11:25:14;;;;;;;45.90;21.73;;;;;;;;;;5049551;28;20384;-62
2023/03/02 11:27:42;;;;;;;50.00;22.40;;;;;;;;;;5053833;28;20093;-63
2023/03/02 11:30:17;;;;;;;48.90;21.98;;;;;;;;;;5070180;28;20036;-62
2023/03/02 11:32:59;;;;;;;45.75;21.70;;;;;;;;;;5069134;28;20041;-62
2023/03/02 11:35:33;;;;;;;45.03;20.92;;;;;;;;;;5072155;28;20033;-62
2023/03/02 11:38:04;;;;;;;46.65;21.45;;;;;;;;;;5069879;28;20119;-61
2023/03/02 11:40:36;;;;;;;49.72;22.10;;;;;;;;;;5072330;28;20040;-62
2023/03/02 11:43:05;;;;;;;47.65;21.23;;;;;;;;;;5068858;28;20051;-62
2023/03/02 11:45:36;;;;;;;43.10;21.23;;;;;;;;;;5072083;28;20037;-62
2023/03/02 11:48:06;;;;;;;48.28;21.73;;;;;;;;;;5068657;28;20040;-62
2023/03/02 11:50:33;;;;;;;48.75;21.38;;;;;;;;;;5069177;28;20045;-62
2023/03/02 11:53:01;;;;;;;44.58;21.25;;;;;;;;;;5069090;28;20078;-62
2023/03/02 11:55:28;;;;;;;49.95;22.00;;;;;;;;;;5070852;28;20090;-62
2023/03/02 11:58:00;;;;;;;46.35;20.67;;;;;;;;;;5071132;28;20079;-62
2023/03/02 12:00:40;;;;;;;47.78;22.13;;;;;;;;;;5071199;28;20040;-62
2023/03/02 12:03:15;;;;;;;46.65;20.13;;;;;;;;;;5066400;28;20054;-62
2023/03/02 12:05:43;;;;;;;45.10;20.00;;;;;;;;;;5071449;28;20094;-62
2023/03/02 12:08:18;;;;;;;35.40;17.45;;;;;;;;;;5070336;28;20040;-62
2023/03/02 12:11:03;;;;;;;38.53;17.33;;;;;;;;;;5064271;28;20093;-62
2023/03/02 12:13:29;;;;;;;44.60;20.25;;;;;;;;;;5058121;28;20094;-62
2023/03/02 12:15:55;;;;;;;41.40;18.98;;;;;;;;;;5049139;28;20098;-62
2023/03/02 12:18:21;;;;;;;47.08;20.80;;;;;;;;;;5066223;28;20082;-62
2023/03/02 12:21:02;;;;;;;44.03;20.50;;;;;;;;;;5059561;28;20272;-63
2023/03/02 12:23:29;;;;;;;47.50;21.52;;;;;;;;;;5045895;28;20044;-63
2023/03/02 12:26:01;;;;;;;47.60;22.40;;;;;;;;;;5042832;28;20077;-62
2023/03/02 12:28:29;;;;;;;47.28;21.55;;;;;;;;;;5054555;28;20059;-62
2023/03/02 12:31:22;;;;;;;47.45;20.90;;;;;;;;;;5056941;28;20098;-61
2023/03/02 12:33:49;;;;;;;50.22;22.58;;;;;;;;;;5064660;28;20123;-62
2023/03/02 12:36:24;;;;;;;40.70;18.33;;;;;;;;;;5060042;28;20032;-62
2023/03/02 12:38:56;;;;;;;47.47;21.25;;;;;;;;;;5065186;28;20089;-62
2023/03/02 12:41:29;;;;;;;47.55;21.15;;;;;;;;;;5066195;28;20490;-62
2023/03/02 12:43:55;;;;;;;48.35;20.92;;;;;;;;;;5057899;28;20040;-62
2023/03/02 12:46:32;;;;;;;44.53;20.05;;;;;;;;;;5059388;28;20048;-62
2023/03/02 12:49:04;;;;;;;44.47;20.17;;;;;;;;;;5067734;28;20052;-62
2023/03/02 12:51:54;;;;;;;45.95;18.38;;;;;;;;;;5061736;28;20529;-62
2023/03/02 12:54:25;;;;;;;42.10;19.88;;;;;;;;;;5051562;28;20041;-62
2023/03/02 12:57:01;;;;;;;41.92;18.25;;;;;;;;;;5069038;28;20115;-62
2023/03/02 12:59:28;;;;;;;41.80;19.98;;;;;;;;;;5068184;28;20047;-62
2023/03/02 13:02:04;;;;;;;42.20;18.73;;;;;;;;;;5062806;28;20045;-62
2023/03/02 13:04:30;;;;;;;37.78;17.85;;;;;;;;;;5064577;28;20036;-62
2023/03/02 13:06:56;;;;;;;39.75;19.42;;;;;;;;;;5066772;28;20048;-62
2023/03/02 13:09:22;;;;;;;38.17;18.02;;;;;;;;;;5067810;28;20032;-62
2023/03/02 13:12:04;;;;;;;35.90;16.00;;;;;;;;;;5067484;28;20111;-62
2023/03/02 13:14:30;;;;;;;38.88;17.73;;;;;;;;;;5066707;28;20037;-62
2023/03/02 13:17:03;;;;;;;41.53;19.58;;;;;;;;;;5070129;28;20487;-62
2023/03/02 13:19:30;;;;;;;41.45;19.13;;;;;;;;;;5050051;28;20040;-62
2023/03/02 13:21:57;;;;;;;38.55;18.50;;;;;;;;;;5071399;28;20130;-62
2023/03/02 13:24:42;;;;;;;40.60;17.75;;;;;;;;;;5070583;28;20051;-62
2023/03/02 13:27:15;;;;;;;37.40;18.50;;;;;;;;;;5062220;28;20048;-62
2023/03/02 13:29:41;;;;;;;39.63;18.85;;;;;;;;;;5068412;28;20141;-62
2023/03/02 13:32:14;;;;;;;39.28;19.10;;;;;;;;;;5067763;28;20117;-62
2023/03/02 13:34:45;;;;;;;45.15;19.80;;;;;;;;;;5069394;28;20062;-62
2023/03/02 13:37:19;;;;;;;39.95;19.55;;;;;;;;;;5067856;28;20134;-62
2023/03/02 13:39:53;;;;;;;39.05;17.33;;;;;;;;;;5071172;28;20036;-62
2023/03/02 13:42:35;;;;;;;39.50;17.58;;;;;;;;;;5066555;28;20039;-62
2023/03/02 13:45:20;;;;;;;36.03;17.70;;;;;;;;;;5066567;28;20041;-62
2023/03/02 13:47:46;;;;;;;34.40;17.02;;;;;;;;;;5068141;28;20037;-62
2023/03/02 13:50:38;;;;;;;34.42;15.95;;;;;;;;;;5072567;28;20651;-62
2023/03/02 13:53:05;;;;;;;36.85;16.77;;;;;;;;;;5064335;28;20048;-62
2023/03/02 13:55:32;;;;;;;34.70;16.45;;;;;;;;;;5072377;28;20032;-62
2023/03/02 13:57:58;;;;;;;32.88;16.85;;;;;;;;;;5070528;28;20055;-62
2023/03/02 14:00:32;;;;;;;32.00;16.73;;;;;;;;;;5069775;28;20375;-62
2023/03/02 14:02:58;;;;;;;38.05;17.98;;;;;;;;;;5069254;28;20493;-62
2023/03/02 14:05:34;;;;;;;31.42;16.10;;;;;;;;;;5073513;28;20113;-62
2023/03/02 14:08:01;;;;;;;32.28;16.05;;;;;;;;;;5072478;28;20048;-62
2023/03/02 14:10:27;;;;;;;29.92;14.50;;;;;;;;;;5072526;28;20270;-62
2023/03/02 14:13:01;;;;;;;32.70;15.80;;;;;;;;;;5070872;28;20045;-62
2023/03/02 14:15:27;;;;;;;33.88;16.60;;;;;;;;;;5066766;28;20130;-63
2023/03/02 14:17:53;;;;;;;30.45;15.60;;;;;;;;;;5073555;28;20068;-62
2023/03/02 14:20:20;;;;;;;31.30;15.57;;;;;;;;;;5071997;28;20117;-62
2023/03/02 14:22:46;;;;;;;31.48;16.40;;;;;;;;;;5065204;28;20052;-62
2023/03/02 14:25:13;;;;;;;31.73;15.85;;;;;;;;;;5071624;28;20060;-63
2023/03/02 14:27:39;;;;;;;31.80;15.48;;;;;;;;;;5068709;28;20041;-63